sensor_id;sensor_type;location;lat;lon;timestamp;P1;durP1;ratioP1;P2;durP2;ratioP2
21438;SDS011;10880;50.302;18.736;2023-06-24T00:00:28;0.83;;;0.83;;
21438;SDS011;10880;50.302;18.736;2023-06-24T00:03:02;1.00;;;1.00;;
21438;SDS011;10880;50.302;18.736;2023-06-24T00:05:28;0.97;;;0.90;;
21438;SDS011;10880;50.302;18.736;2023-06-24T00:07:55;1.10;;;1.00;;
21438;SDS011;10880;50.302;18.736;2023-06-24T00:10:23;0.93;;;0.93;;
21438;SDS011;10880;50.302;18.736;2023-06-24T00:12:50;1.03;;;1.03;;
21438;SDS011;10880;50.302;18.736;2023-06-24T00:15:20;1.00;;;1.00;;
21438;SDS011;10880;50.302;18.736;2023-06-24T00:17:46;1.10;;;1.07;;
21438;SDS011;10880;50.302;18.736;2023-06-24T00:20:17;0.97;;;0.97;;
21438;SDS011;10880;50.302;18.736;2023-06-24T00:22:45;0.90;;;0.90;;
21438;SDS011;10880;50.302;18.736;2023-06-24T00:25:14;0.90;;;0.90;;
21438;SDS011;10880;50.302;18.736;2023-06-24T00:27:41;1.07;;;1.00;;
21438;SDS011;10880;50.302;18.736;2023-06-24T00:30:08;1.10;;;1.10;;
21438;SDS011;10880;50.302;18.736;2023-06-24T00:32:35;0.97;;;0.90;;
21438;SDS011;10880;50.302;18.736;2023-06-24T00:35:05;1.30;;;1.00;;
21438;SDS011;10880;50.302;18.736;2023-06-24T00:37:32;1.30;;;1.20;;
21438;SDS011;10880;50.302;18.736;2023-06-24T00:39:58;1.07;;;1.07;;
21438;SDS011;10880;50.302;18.736;2023-06-24T00:42:27;0.90;;;0.90;;
21438;SDS011;10880;50.302;18.736;2023-06-24T00:44:57;1.30;;;1.20;;
21438;SDS011;10880;50.302;18.736;2023-06-24T00:47:24;1.10;;;1.10;;
21438;SDS011;10880;50.302;18.736;2023-06-24T00:49:53;1.30;;;1.20;;
21438;SDS011;10880;50.302;18.736;2023-06-24T00:52:22;1.20;;;1.10;;
21438;SDS011;10880;50.302;18.736;2023-06-24T00:54:49;1.23;;;1.10;;
21438;SDS011;10880;50.302;18.736;2023-06-24T00:57:17;1.10;;;1.00;;
21438;SDS011;10880;50.302;18.736;2023-06-24T00:59:54;1.20;;;1.10;;
21438;SDS011;10880;50.302;18.736;2023-06-24T01:02:23;0.90;;;0.90;;
21438;SDS011;10880;50.302;18.736;2023-06-24T01:04:54;0.90;;;0.90;;
21438;SDS011;10880;50.302;18.736;2023-06-24T01:07:20;1.30;;;1.20;;
21438;SDS011;10880;50.302;18.736;2023-06-24T01:09:48;2.70;;;1.00;;
21438;SDS011;10880;50.302;18.736;2023-06-24T01:12:36;1.07;;;1.07;;
21438;SDS011;10880;50.302;18.736;2023-06-24T01:15:08;1.30;;;1.20;;
21438;SDS011;10880;50.302;18.736;2023-06-24T01:17:56;1.10;;;1.10;;
21438;SDS011;10880;50.302;18.736;2023-06-24T01:24:45;1.07;;;1.07;;
21438;SDS011;10880;50.302;18.736;2023-06-24T01:26:52;1.27;;;1.17;;
21438;SDS011;10880;50.302;18.736;2023-06-24T01:34:48;1.30;;;1.20;;
21438;SDS011;10880;50.302;18.736;2023-06-24T01:40:27;1.10;;;1.10;;
21438;SDS011;10880;50.302;18.736;2023-06-24T01:43:10;1.20;;;1.10;;
21438;SDS011;10880;50.302;18.736;2023-06-24T01:45:47;1.53;;;1.20;;
21438;SDS011;10880;50.302;18.736;2023-06-24T01:48:30;1.20;;;1.10;;
21438;SDS011;10880;50.302;18.736;2023-06-24T01:51:17;1.03;;;1.00;;
21438;SDS011;10880;50.302;18.736;2023-06-24T01:53:54;1.23;;;1.13;;
21438;SDS011;10880;50.302;18.736;2023-06-24T01:56:36;1.30;;;1.20;;
21438;SDS011;10880;50.302;18.736;2023-06-24T01:59:07;1.40;;;1.30;;
21438;SDS011;10880;50.302;18.736;2023-06-24T02:01:40;1.10;;;1.10;;
21438;SDS011;10880;50.302;18.736;2023-06-24T02:04:13;1.37;;;1.27;;
21438;SDS011;10880;50.302;18.736;2023-06-24T02:06:41;1.03;;;1.03;;
21438;SDS011;10880;50.302;18.736;2023-06-24T02:09:10;1.07;;;1.07;;
21438;SDS011;10880;50.302;18.736;2023-06-24T02:11:43;1.10;;;1.10;;
21438;SDS011;10880;50.302;18.736;2023-06-24T02:14:10;1.23;;;1.13;;
21438;SDS011;10880;50.302;18.736;2023-06-24T02:16:38;1.10;;;1.10;;
21438;SDS011;10880;50.302;18.736;2023-06-24T02:19:10;1.10;;;1.10;;
21438;SDS011;10880;50.302;18.736;2023-06-24T02:21:39;1.17;;;1.17;;
21438;SDS011;10880;50.302;18.736;2023-06-24T02:24:07;1.40;;;1.30;;
21438;SDS011;10880;50.302;18.736;2023-06-24T02:26:34;1.30;;;1.20;;
21438;SDS011;10880;50.302;18.736;2023-06-24T02:29:07;1.20;;;1.20;;
21438;SDS011;10880;50.302;18.736;2023-06-24T02:31:37;1.30;;;1.20;;
21438;SDS011;10880;50.302;18.736;2023-06-24T02:34:04;1.40;;;1.30;;
21438;SDS011;10880;50.302;18.736;2023-06-24T02:36:34;1.40;;;1.30;;
21438;SDS011;10880;50.302;18.736;2023-06-24T02:39:02;1.47;;;1.33;;
21438;SDS011;10880;50.302;18.736;2023-06-24T02:41:29;0.97;;;0.97;;
21438;SDS011;10880;50.302;18.736;2023-06-24T02:43:56;1.40;;;1.30;;
21438;SDS011;10880;50.302;18.736;2023-06-24T02:46:25;1.30;;;1.20;;
21438;SDS011;10880;50.302;18.736;2023-06-24T02:48:58;1.33;;;1.23;;
21438;SDS011;10880;50.302;18.736;2023-06-24T02:51:27;1.20;;;1.20;;
21438;SDS011;10880;50.302;18.736;2023-06-24T02:53:54;1.23;;;1.23;;
21438;SDS011;10880;50.302;18.736;2023-06-24T02:56:41;1.60;;;1.50;;
21438;SDS011;10880;50.302;18.736;2023-06-24T02:59:15;1.40;;;1.30;;
21438;SDS011;10880;50.302;18.736;2023-06-24T03:01:43;1.60;;;1.40;;
21438;SDS011;10880;50.302;18.736;2023-06-24T03:04:15;1.57;;;1.30;;
21438;SDS011;10880;50.302;18.736;2023-06-24T03:06:42;1.30;;;1.20;;
21438;SDS011;10880;50.302;18.736;2023-06-24T03:09:11;1.47;;;1.37;;
21438;SDS011;10880;50.302;18.736;2023-06-24T03:11:42;1.43;;;1.33;;
21438;SDS011;10880;50.302;18.736;2023-06-24T03:14:11;1.70;;;1.60;;
21438;SDS011;10880;50.302;18.736;2023-06-24T03:16:43;2.07;;;1.57;;
21438;SDS011;10880;50.302;18.736;2023-06-24T03:19:13;1.60;;;1.50;;
21438;SDS011;10880;50.302;18.736;2023-06-24T03:21:41;1.63;;;1.53;;
21438;SDS011;10880;50.302;18.736;2023-06-24T03:24:22;1.60;;;1.50;;
21438;SDS011;10880;50.302;18.736;2023-06-24T03:26:52;1.50;;;1.40;;
21438;SDS011;10880;50.302;18.736;2023-06-24T03:29:25;1.50;;;1.40;;
21438;SDS011;10880;50.302;18.736;2023-06-24T03:32:00;1.60;;;1.50;;
21438;SDS011;10880;50.302;18.736;2023-06-24T03:34:28;1.53;;;1.43;;
21438;SDS011;10880;50.302;18.736;2023-06-24T03:36:54;1.67;;;1.57;;
21438;SDS011;10880;50.302;18.736;2023-06-24T03:39:21;1.70;;;1.60;;
21438;SDS011;10880;50.302;18.736;2023-06-24T03:41:48;1.80;;;1.70;;
21438;SDS011;10880;50.302;18.736;2023-06-24T03:44:18;1.90;;;1.80;;
21438;SDS011;10880;50.302;18.736;2023-06-24T03:46:46;2.00;;;1.90;;
21438;SDS011;10880;50.302;18.736;2023-06-24T03:49:13;2.20;;;2.00;;
21438;SDS011;10880;50.302;18.736;2023-06-24T03:51:41;2.37;;;2.03;;
21438;SDS011;10880;50.302;18.736;2023-06-24T03:54:08;2.00;;;1.90;;
21438;SDS011;10880;50.302;18.736;2023-06-24T03:56:36;2.10;;;2.00;;
21438;SDS011;10880;50.302;18.736;2023-06-24T03:59:04;2.20;;;2.00;;
21438;SDS011;10880;50.302;18.736;2023-06-24T04:01:30;2.27;;;2.07;;
21438;SDS011;10880;50.302;18.736;2023-06-24T04:04:00;2.43;;;2.20;;
21438;SDS011;10880;50.302;18.736;2023-06-24T04:06:26;2.37;;;2.17;;
21438;SDS011;10880;50.302;18.736;2023-06-24T04:08:53;4.40;;;2.90;;
21438;SDS011;10880;50.302;18.736;2023-06-24T04:11:22;2.40;;;2.20;;
21438;SDS011;10880;50.302;18.736;2023-06-24T04:13:50;2.53;;;2.33;;
21438;SDS011;10880;50.302;18.736;2023-06-24T04:16:18;3.10;;;2.80;;
21438;SDS011;10880;50.302;18.736;2023-06-24T04:18:45;2.70;;;2.40;;
21438;SDS011;10880;50.302;18.736;2023-06-24T04:21:11;3.23;;;2.73;;
21438;SDS011;10880;50.302;18.736;2023-06-24T04:23:38;2.97;;;2.60;;
21438;SDS011;10880;50.302;18.736;2023-06-24T04:26:10;3.03;;;2.73;;
21438;SDS011;10880;50.302;18.736;2023-06-24T04:28:37;2.97;;;2.67;;
21438;SDS011;10880;50.302;18.736;2023-06-24T04:31:04;2.47;;;2.27;;
21438;SDS011;10880;50.302;18.736;2023-06-24T04:33:30;2.53;;;2.33;;
21438;SDS011;10880;50.302;18.736;2023-06-24T04:35:57;3.47;;;2.50;;
21438;SDS011;10880;50.302;18.736;2023-06-24T04:38:25;2.67;;;2.47;;
21438;SDS011;10880;50.302;18.736;2023-06-24T04:40:58;3.00;;;2.60;;
21438;SDS011;10880;50.302;18.736;2023-06-24T04:43:25;2.80;;;2.40;;
21438;SDS011;10880;50.302;18.736;2023-06-24T04:45:58;2.60;;;2.30;;
21438;SDS011;10880;50.302;18.736;2023-06-24T04:48:26;2.57;;;2.37;;
21438;SDS011;10880;50.302;18.736;2023-06-24T04:50:56;2.40;;;2.20;;
21438;SDS011;10880;50.302;18.736;2023-06-24T04:53:27;2.30;;;2.10;;
21438;SDS011;10880;50.302;18.736;2023-06-24T04:56:05;2.50;;;2.07;;
21438;SDS011;10880;50.302;18.736;2023-06-24T04:58:32;2.40;;;2.20;;
21438;SDS011;10880;50.302;18.736;2023-06-24T05:01:00;2.40;;;2.20;;
21438;SDS011;10880;50.302;18.736;2023-06-24T05:03:27;2.27;;;2.03;;
21438;SDS011;10880;50.302;18.736;2023-06-24T05:05:57;3.20;;;2.10;;
21438;SDS011;10880;50.302;18.736;2023-06-24T05:08:29;1.83;;;1.73;;
21438;SDS011;10880;50.302;18.736;2023-06-24T05:10:55;1.83;;;1.73;;
21438;SDS011;10880;50.302;18.736;2023-06-24T05:13:27;2.30;;;2.10;;
21438;SDS011;10880;50.302;18.736;2023-06-24T05:15:54;1.80;;;1.70;;
21438;SDS011;10880;50.302;18.736;2023-06-24T05:18:20;2.33;;;2.13;;
21438;SDS011;10880;50.302;18.736;2023-06-24T05:20:47;2.20;;;2.00;;
21438;SDS011;10880;50.302;18.736;2023-06-24T05:23:14;1.90;;;1.80;;
21438;SDS011;10880;50.302;18.736;2023-06-24T05:25:40;2.10;;;1.90;;
21438;SDS011;10880;50.302;18.736;2023-06-24T05:28:08;2.03;;;1.83;;
21438;SDS011;10880;50.302;18.736;2023-06-24T05:30:34;2.07;;;1.87;;
21438;SDS011;10880;50.302;18.736;2023-06-24T05:33:01;2.70;;;1.80;;
21438;SDS011;10880;50.302;18.736;2023-06-24T05:35:34;2.07;;;1.87;;
21438;SDS011;10880;50.302;18.736;2023-06-24T05:38:21;1.70;;;1.60;;
21438;SDS011;10880;50.302;18.736;2023-06-24T05:40:54;1.80;;;1.70;;
21438;SDS011;10880;50.302;18.736;2023-06-24T05:43:31;1.70;;;1.60;;
21438;SDS011;10880;50.302;18.736;2023-06-24T05:46:01;1.83;;;1.73;;
21438;SDS011;10880;50.302;18.736;2023-06-24T05:48:33;1.60;;;1.50;;
21438;SDS011;10880;50.302;18.736;2023-06-24T05:51:15;2.00;;;1.83;;
21438;SDS011;10880;50.302;18.736;2023-06-24T05:53:44;2.10;;;1.90;;
21438;SDS011;10880;50.302;18.736;2023-06-24T05:56:17;1.90;;;1.80;;
21438;SDS011;10880;50.302;18.736;2023-06-24T05:58:48;1.83;;;1.73;;
21438;SDS011;10880;50.302;18.736;2023-06-24T06:01:26;2.10;;;1.80;;
21438;SDS011;10880;50.302;18.736;2023-06-24T06:03:57;1.87;;;1.77;;
21438;SDS011;10880;50.302;18.736;2023-06-24T06:06:35;1.67;;;1.57;;
21438;SDS011;10880;50.302;18.736;2023-06-24T06:09:04;1.87;;;1.77;;
21438;SDS011;10880;50.302;18.736;2023-06-24T06:11:34;2.00;;;1.90;;
21438;SDS011;10880;50.302;18.736;2023-06-24T06:14:03;1.80;;;1.70;;
21438;SDS011;10880;50.302;18.736;2023-06-24T06:16:32;2.10;;;1.90;;
21438;SDS011;10880;50.302;18.736;2023-06-24T06:19:02;1.87;;;1.60;;
21438;SDS011;10880;50.302;18.736;2023-06-24T06:21:36;1.70;;;1.60;;
21438;SDS011;10880;50.302;18.736;2023-06-24T06:24:03;1.80;;;1.70;;
21438;SDS011;10880;50.302;18.736;2023-06-24T06:26:40;2.00;;;1.90;;
21438;SDS011;10880;50.302;18.736;2023-06-24T06:29:14;2.00;;;1.80;;
21438;SDS011;10880;50.302;18.736;2023-06-24T06:31:43;1.97;;;1.80;;
21438;SDS011;10880;50.302;18.736;2023-06-24T06:34:19;1.70;;;1.60;;
21438;SDS011;10880;50.302;18.736;2023-06-24T06:36:49;1.70;;;1.60;;
21438;SDS011;10880;50.302;18.736;2023-06-24T06:39:21;1.77;;;1.67;;
21438;SDS011;10880;50.302;18.736;2023-06-24T06:41:57;1.80;;;1.70;;
21438;SDS011;10880;50.302;18.736;2023-06-24T06:44:25;1.77;;;1.67;;
21438;SDS011;10880;50.302;18.736;2023-06-24T06:46:57;2.10;;;1.90;;
21438;SDS011;10880;50.302;18.736;2023-06-24T06:49:32;2.57;;;2.30;;
21438;SDS011;10880;50.302;18.736;2023-06-24T06:52:06;2.00;;;1.67;;
21438;SDS011;10880;50.302;18.736;2023-06-24T06:54:37;1.70;;;1.60;;
21438;SDS011;10880;50.302;18.736;2023-06-24T06:57:08;2.00;;;1.80;;
21438;SDS011;10880;50.302;18.736;2023-06-24T06:59:42;1.97;;;1.77;;
21438;SDS011;10880;50.302;18.736;2023-06-24T07:02:12;1.87;;;1.70;;
21438;SDS011;10880;50.302;18.736;2023-06-24T07:04:42;1.80;;;1.70;;
21438;SDS011;10880;50.302;18.736;2023-06-24T07:07:11;2.23;;;1.87;;
21438;SDS011;10880;50.302;18.736;2023-06-24T07:09:42;1.90;;;1.80;;
21438;SDS011;10880;50.302;18.736;2023-06-24T07:12:13;2.13;;;1.93;;
21438;SDS011;10880;50.302;18.736;2023-06-24T07:14:43;1.90;;;1.80;;
21438;SDS011;10880;50.302;18.736;2023-06-24T07:17:13;2.20;;;2.00;;
21438;SDS011;10880;50.302;18.736;2023-06-24T07:19:42;2.27;;;2.07;;
21438;SDS011;10880;50.302;18.736;2023-06-24T07:22:12;2.17;;;1.90;;
21438;SDS011;10880;50.302;18.736;2023-06-24T07:24:41;2.57;;;2.37;;
21438;SDS011;10880;50.302;18.736;2023-06-24T07:27:27;2.17;;;1.97;;
21438;SDS011;10880;50.302;18.736;2023-06-24T07:30:00;2.10;;;1.90;;
21438;SDS011;10880;50.302;18.736;2023-06-24T07:32:31;2.03;;;1.93;;
21438;SDS011;10880;50.302;18.736;2023-06-24T07:35:02;1.83;;;1.73;;
21438;SDS011;10880;50.302;18.736;2023-06-24T07:37:34;2.00;;;1.90;;
21438;SDS011;10880;50.302;18.736;2023-06-24T07:40:02;2.07;;;1.97;;
21438;SDS011;10880;50.302;18.736;2023-06-24T07:42:34;2.37;;;2.13;;
21438;SDS011;10880;50.302;18.736;2023-06-24T07:45:03;2.20;;;2.00;;
21438;SDS011;10880;50.302;18.736;2023-06-24T07:47:36;2.23;;;2.03;;
21438;SDS011;10880;50.302;18.736;2023-06-24T20:35:16;2.20;;;2.00;;
21438;SDS011;10880;50.302;18.736;2023-06-24T20:37:43;3.10;;;2.57;;
21438;SDS011;10880;50.302;18.736;2023-06-24T20:40:14;2.60;;;2.40;;
21438;SDS011;10880;50.302;18.736;2023-06-24T20:42:42;2.60;;;2.40;;
21438;SDS011;10880;50.302;18.736;2023-06-24T20:45:09;2.50;;;2.30;;
21438;SDS011;10880;50.302;18.736;2023-06-24T20:47:44;2.40;;;2.20;;
21438;SDS011;10880;50.302;18.736;2023-06-24T20:50:10;2.80;;;2.60;;
21438;SDS011;10880;50.302;18.736;2023-06-24T20:52:37;2.80;;;2.50;;
21438;SDS011;10880;50.302;18.736;2023-06-24T20:55:05;2.97;;;2.67;;
21438;SDS011;10880;50.302;18.736;2023-06-24T20:57:32;2.97;;;2.50;;
21438;SDS011;10880;50.302;18.736;2023-06-24T20:59:59;2.60;;;2.40;;
21438;SDS011;10880;50.302;18.736;2023-06-24T21:02:27;2.47;;;2.27;;
21438;SDS011;10880;50.302;18.736;2023-06-24T21:04:54;2.50;;;2.30;;
21438;SDS011;10880;50.302;18.736;2023-06-24T21:07:21;2.70;;;2.50;;
21438;SDS011;10880;50.302;18.736;2023-06-24T21:09:50;2.80;;;2.60;;
21438;SDS011;10880;50.302;18.736;2023-06-24T21:12:17;2.50;;;2.30;;
21438;SDS011;10880;50.302;18.736;2023-06-24T21:14:45;4.07;;;3.30;;
21438;SDS011;10880;50.302;18.736;2023-06-24T21:17:15;4.53;;;3.57;;
21438;SDS011;10880;50.302;18.736;2023-06-24T21:19:43;4.00;;;3.57;;
21438;SDS011;10880;50.302;18.736;2023-06-24T21:22:17;3.37;;;3.07;;
21438;SDS011;10880;50.302;18.736;2023-06-24T21:24:46;4.53;;;3.63;;
21438;SDS011;10880;50.302;18.736;2023-06-24T21:27:13;4.77;;;3.83;;
21438;SDS011;10880;50.302;18.736;2023-06-24T21:29:41;5.17;;;4.13;;
21438;SDS011;10880;50.302;18.736;2023-06-24T21:32:09;5.13;;;4.30;;
21438;SDS011;10880;50.302;18.736;2023-06-24T21:34:36;5.60;;;4.40;;
21438;SDS011;10880;50.302;18.736;2023-06-24T21:37:02;5.27;;;4.20;;
21438;SDS011;10880;50.302;18.736;2023-06-24T21:39:32;5.43;;;4.60;;
21438;SDS011;10880;50.302;18.736;2023-06-24T21:41:59;7.13;;;4.70;;
21438;SDS011;10880;50.302;18.736;2023-06-24T21:44:25;8.03;;;5.07;;
21438;SDS011;10880;50.302;18.736;2023-06-24T21:46:53;6.77;;;5.20;;
21438;SDS011;10880;50.302;18.736;2023-06-24T21:49:20;6.60;;;5.27;;
21438;SDS011;10880;50.302;18.736;2023-06-24T21:51:51;7.03;;;5.57;;
21438;SDS011;10880;50.302;18.736;2023-06-24T21:54:20;8.30;;;6.07;;
21438;SDS011;10880;50.302;18.736;2023-06-24T21:56:49;7.33;;;5.47;;
21438;SDS011;10880;50.302;18.736;2023-06-24T21:59:17;7.40;;;5.50;;
21438;SDS011;10880;50.302;18.736;2023-06-24T22:01:47;7.00;;;5.40;;
21438;SDS011;10880;50.302;18.736;2023-06-24T22:04:14;9.53;;;6.17;;
21438;SDS011;10880;50.302;18.736;2023-06-24T22:06:47;6.90;;;5.50;;
21438;SDS011;10880;50.302;18.736;2023-06-24T22:09:37;8.07;;;5.67;;
21438;SDS011;10880;50.302;18.736;2023-06-24T22:12:05;8.37;;;5.90;;
21438;SDS011;10880;50.302;18.736;2023-06-24T22:14:32;9.90;;;6.73;;
21438;SDS011;10880;50.302;18.736;2023-06-24T22:17:11;8.43;;;5.60;;
21438;SDS011;10880;50.302;18.736;2023-06-24T22:20:11;11.00;;;7.60;;
21438;SDS011;10880;50.302;18.736;2023-06-24T22:22:43;8.23;;;5.93;;
21438;SDS011;10880;50.302;18.736;2023-06-24T22:25:13;8.20;;;6.17;;
21438;SDS011;10880;50.302;18.736;2023-06-24T22:27:42;9.40;;;6.17;;
21438;SDS011;10880;50.302;18.736;2023-06-24T22:30:13;8.17;;;5.63;;
21438;SDS011;10880;50.302;18.736;2023-06-24T22:32:44;8.63;;;6.07;;
21438;SDS011;10880;50.302;18.736;2023-06-24T22:35:10;6.57;;;5.20;;
21438;SDS011;10880;50.302;18.736;2023-06-24T22:37:46;7.07;;;5.37;;
21438;SDS011;10880;50.302;18.736;2023-06-24T22:40:14;7.63;;;5.63;;
21438;SDS011;10880;50.302;18.736;2023-06-24T22:42:46;6.63;;;5.23;;
21438;SDS011;10880;50.302;18.736;2023-06-24T22:45:18;8.80;;;5.87;;
21438;SDS011;10880;50.302;18.736;2023-06-24T22:47:49;7.27;;;5.30;;
21438;SDS011;10880;50.302;18.736;2023-06-24T22:50:19;7.93;;;5.40;;
21438;SDS011;10880;50.302;18.736;2023-06-24T22:52:51;6.60;;;5.00;;
21438;SDS011;10880;50.302;18.736;2023-06-24T22:55:19;6.50;;;4.87;;
21438;SDS011;10880;50.302;18.736;2023-06-24T22:57:54;6.57;;;4.87;;
21438;SDS011;10880;50.302;18.736;2023-06-24T23:00:23;5.90;;;4.60;;
21438;SDS011;10880;50.302;18.736;2023-06-24T23:02:52;6.47;;;5.13;;
21438;SDS011;10880;50.302;18.736;2023-06-24T23:05:22;7.50;;;5.40;;
21438;SDS011;10880;50.302;18.736;2023-06-24T23:07:55;6.10;;;4.93;;
21438;SDS011;10880;50.302;18.736;2023-06-24T23:10:31;6.10;;;4.70;;
21438;SDS011;10880;50.302;18.736;2023-06-24T23:12:59;5.47;;;4.73;;
21438;SDS011;10880;50.302;18.736;2023-06-24T23:15:29;6.20;;;4.83;;
21438;SDS011;10880;50.302;18.736;2023-06-24T23:17:58;5.37;;;4.37;;
21438;SDS011;10880;50.302;18.736;2023-06-24T23:20:26;6.17;;;4.60;;
21438;SDS011;10880;50.302;18.736;2023-06-24T23:22:53;5.50;;;4.50;;
21438;SDS011;10880;50.302;18.736;2023-06-24T23:25:21;5.80;;;4.80;;
21438;SDS011;10880;50.302;18.736;2023-06-24T23:27:52;5.60;;;4.90;;
21438;SDS011;10880;50.302;18.736;2023-06-24T23:30:28;6.17;;;4.60;;
21438;SDS011;10880;50.302;18.736;2023-06-24T23:33:03;5.57;;;4.40;;
21438;SDS011;10880;50.302;18.736;2023-06-24T23:35:33;5.83;;;4.50;;
21438;SDS011;10880;50.302;18.736;2023-06-24T23:38:01;6.20;;;4.60;;
21438;SDS011;10880;50.302;18.736;2023-06-24T23:40:28;5.47;;;4.50;;
21438;SDS011;10880;50.302;18.736;2023-06-24T23:42:56;5.50;;;4.30;;
21438;SDS011;10880;50.302;18.736;2023-06-24T23:45:23;5.30;;;4.13;;
21438;SDS011;10880;50.302;18.736;2023-06-24T23:47:51;5.50;;;4.37;;
21438;SDS011;10880;50.302;18.736;2023-06-24T23:50:18;5.83;;;4.30;;
21438;SDS011;10880;50.302;18.736;2023-06-24T23:52:46;4.30;;;3.83;;
21438;SDS011;10880;50.302;18.736;2023-06-24T23:55:18;4.37;;;3.80;;
21438;SDS011;10880;50.302;18.736;2023-06-24T23:58:03;5.17;;;4.00;;
